createdAt,value
2022-12-15T05:00:55.902Z,76.98
2022-12-15T05:05:16.283Z,76.64
2022-12-15T05:09:36.685Z,76.71
2022-12-15T05:13:57.117Z,76.64
2022-12-15T05:18:18.734Z,76.20
2022-12-15T05:22:39.025Z,75.99
2022-12-15T05:26:59.510Z,75.86
2022-12-15T05:31:19.888Z,75.88
2022-12-15T05:35:24.131Z,75.81
2022-12-15T05:39:27.769Z,75.94
2022-12-15T05:43:30.975Z,75.93
2022-12-15T05:47:33.858Z,76.15
2022-12-15T05:51:41.305Z,76.11
2022-12-15T05:55:43.936Z,76.37
2022-12-15T05:59:46.562Z,76.21
2022-12-15T06:03:49.239Z,76.48
2022-12-15T06:07:53.215Z,76.47
2022-12-15T06:11:55.826Z,76.53
2022-12-15T06:15:59.952Z,76.34
2022-12-15T06:20:02.840Z,76.29
2022-12-15T06:24:07.482Z,76.45
2022-12-15T06:28:10.203Z,76.29
2022-12-15T06:32:12.984Z,76.39
2022-12-15T06:36:17.208Z,76.22
2022-12-15T06:40:21.223Z,76.22
2022-12-15T06:44:24.045Z,76.41
2022-12-15T06:48:26.963Z,76.31
2022-12-15T06:52:29.592Z,76.50
2022-12-15T06:56:36.958Z,76.70
2022-12-15T07:00:40.539Z,76.73
2022-12-15T07:04:43.177Z,76.34
2022-12-15T07:08:52.180Z,76.46
2022-12-15T07:12:57.628Z,76.49
2022-12-15T07:17:00.344Z,76.56
2022-12-15T07:25:44.273Z,76.69
2022-12-15T07:29:48.292Z,76.69
2022-12-15T07:33:52.130Z,76.82
2022-12-15T07:37:55.135Z,76.90
2022-12-15T07:41:57.798Z,77.06
2022-12-15T07:46:02.692Z,76.93
2022-12-15T07:50:06.095Z,76.47
2022-12-15T07:54:10.998Z,76.21
2022-12-15T07:58:13.651Z,75.74
2022-12-15T08:02:18.265Z,75.64
2022-12-15T08:06:21.259Z,75.56
2022-12-15T08:10:23.713Z,75.54
2022-12-15T08:14:26.415Z,75.47
2022-12-15T08:18:30.382Z,75.12
2022-12-15T08:22:33.008Z,74.94
2022-12-15T08:26:37.731Z,74.82
2022-12-15T08:30:40.746Z,74.62
2022-12-15T08:34:44.718Z,74.36
2022-12-15T08:38:48.492Z,74.53
2022-12-15T08:42:51.084Z,74.72
2022-12-15T08:46:53.697Z,74.43
2022-12-15T08:50:57.873Z,75.07
2022-12-15T08:55:00.472Z,74.63
2022-12-15T08:59:03.825Z,74.53
2022-12-15T09:03:06.483Z,74.82
2022-12-15T09:07:10.630Z,74.61
2022-12-15T09:11:13.693Z,74.51
2022-12-15T09:15:16.425Z,74.75
2022-12-15T09:19:19.102Z,74.61
2022-12-15T09:23:23.278Z,74.37
2022-12-15T09:27:25.966Z,73.91
2022-12-15T09:31:30.946Z,74.26
2022-12-15T09:35:33.680Z,74.16
2022-12-15T09:39:38.838Z,74.00
2022-12-15T09:43:59.867Z,73.68
2022-12-15T09:48:06.156Z,73.70
2022-12-15T09:52:14.086Z,73.65
2022-12-15T09:56:22.469Z,73.46
2022-12-15T10:00:27.037Z,73.76
2022-12-15T10:04:39.347Z,73.75
2022-12-15T10:08:45.606Z,73.33
2022-12-15T10:13:00.147Z,72.93
2022-12-15T10:17:14.889Z,72.79
2022-12-15T10:21:17.948Z,73.03
2022-12-15T10:25:29.762Z,73.20
2022-12-15T10:29:44.035Z,73.03
2022-12-15T10:33:55.498Z,73.06
2022-12-15T10:37:59.702Z,73.26
2022-12-15T10:42:15.062Z,73.20
2022-12-15T10:46:21.906Z,73.32
2022-12-15T10:50:27.411Z,72.70
2022-12-15T10:54:35.585Z,73.11
2022-12-15T10:58:50.172Z,72.65
2022-12-15T11:02:54.652Z,72.75
2022-12-15T11:06:58.964Z,73.24
2022-12-15T11:11:19.088Z,73.08
2022-12-15T11:15:47.195Z,73.06
2022-12-15T11:20:03.117Z,72.45
2022-12-15T11:24:15.646Z,72.94
2022-12-15T11:28:22.480Z,72.90
2022-12-15T11:32:27.501Z,72.31
2022-12-15T11:36:54.586Z,72.49
2022-12-15T11:41:06.348Z,72.22
2022-12-15T11:45:18.550Z,72.43
2022-12-15T11:49:40.966Z,71.84
2022-12-15T11:53:59.231Z,72.10
2022-12-15T11:58:24.254Z,71.98
2022-12-15T12:02:44.225Z,71.07
2022-12-15T12:06:59.332Z,70.78
2022-12-15T12:11:11.508Z,71.27
2022-12-15T12:15:27.734Z,70.85
2022-12-15T12:19:35.637Z,70.49
2022-12-15T12:23:45.255Z,69.97
2022-12-15T12:27:56.609Z,70.60
2022-12-15T12:32:08.685Z,70.45
2022-12-15T12:36:12.821Z,69.97
2022-12-15T12:40:20.721Z,69.87
2022-12-15T12:44:32.378Z,69.20
2022-12-15T12:48:39.565Z,69.35
2022-12-15T12:52:49.665Z,67.98
2022-12-15T12:56:52.371Z,68.67
2022-12-15T13:01:16.739Z,68.59
2022-12-15T13:05:31.251Z,68.37
2022-12-15T13:09:40.403Z,68.50
2022-12-15T13:13:51.144Z,68.21
2022-12-15T13:18:01.280Z,68.20
2022-12-15T13:22:04.114Z,68.06
2022-12-15T13:26:15.332Z,68.08
2022-12-15T13:30:18.663Z,67.58
2022-12-15T13:34:24.253Z,68.12
2022-12-15T13:38:54.615Z,68.01
2022-12-15T13:42:59.327Z,67.83
2022-12-15T13:47:10.471Z,67.83
2022-12-15T13:51:27.328Z,68.09
2022-12-15T13:55:40.529Z,68.49
2022-12-15T13:59:49.356Z,68.46
2022-12-15T14:04:01.034Z,68.35
2022-12-15T14:08:11.215Z,68.80
2022-12-15T14:12:15.127Z,68.76
2022-12-15T14:16:21.123Z,69.32
2022-12-15T14:20:25.932Z,70.37
2022-12-15T14:24:40.920Z,70.52
2022-12-15T14:28:45.435Z,70.93
2022-12-15T14:32:52.588Z,72.15
2022-12-15T14:36:57.311Z,71.74
2022-12-15T14:41:04.227Z,72.89
2022-12-15T14:45:18.896Z,72.73
2022-12-15T14:49:23.954Z,73.08
2022-12-15T14:53:29.308Z,73.34
2022-12-15T14:57:44.335Z,73.48
2022-12-15T15:06:19.545Z,74.65
2022-12-15T15:10:25.312Z,74.68
2022-12-15T15:14:33.914Z,75.94
2022-12-15T15:18:36.613Z,76.11
2022-12-15T15:22:41.530Z,76.01
2022-12-15T15:26:44.497Z,75.93
2022-12-15T15:30:50.014Z,75.88
2022-12-15T15:34:53.251Z,76.22
2022-12-15T15:38:56.006Z,76.33
2022-12-15T15:42:58.685Z,76.63
2022-12-15T15:47:02.662Z,76.92
2022-12-15T15:51:06.478Z,76.92
2022-12-15T15:55:14.959Z,76.88
2022-12-15T15:59:20.842Z,77.09
2022-12-15T16:03:25.136Z,76.18
2022-12-15T16:07:29.990Z,75.89
2022-12-15T16:11:33.064Z,75.79
2022-12-15T16:15:36.024Z,75.67
2022-12-15T16:19:40.482Z,76.33
2022-12-15T16:23:46.050Z,77.20
2022-12-15T16:27:48.656Z,77.45
2022-12-15T16:31:52.352Z,77.08
2022-12-15T16:35:56.572Z,77.24
2022-12-15T16:39:59.349Z,77.21
2022-12-15T16:44:01.984Z,76.97
2022-12-15T16:48:04.998Z,76.93
2022-12-15T16:52:17.957Z,77.43
2022-12-15T16:56:20.798Z,78.07
2022-12-15T17:00:25.946Z,77.99
2022-12-15T17:04:28.545Z,78.23
2022-12-15T17:08:38.335Z,77.98
2022-12-15T17:12:41.265Z,77.73
2022-12-15T17:16:43.837Z,76.81
2022-12-15T17:20:46.810Z,77.28
2022-12-15T17:24:51.938Z,78.11
2022-12-15T17:28:55.408Z,78.12
2022-12-15T17:32:58.166Z,78.52
2022-12-15T17:37:04.244Z,78.64
2022-12-15T17:41:28.824Z,78.74
2022-12-15T17:45:35.477Z,78.20
2022-12-15T17:49:39.204Z,77.36
2022-12-15T17:53:43.128Z,76.73
2022-12-15T17:57:47.167Z,77.10
2022-12-15T18:01:50.219Z,77.66
2022-12-15T18:05:53.629Z,78.64
2022-12-15T18:09:56.282Z,78.67
2022-12-15T18:14:00.727Z,79.09
2022-12-15T18:18:03.334Z,78.82
2022-12-15T18:22:07.142Z,78.34
2022-12-15T18:26:12.478Z,77.85
2022-12-15T18:30:18.812Z,77.59
2022-12-15T18:34:21.994Z,78.19
2022-12-15T18:38:26.110Z,78.55
2022-12-15T18:42:28.709Z,78.42
2022-12-15T18:46:32.866Z,78.74
2022-12-15T18:50:36.675Z,78.90
2022-12-15T18:54:40.803Z,78.57
2022-12-15T18:58:43.511Z,78.72
2022-12-15T19:02:48.569Z,78.56
2022-12-15T19:06:51.330Z,78.61
2022-12-15T19:10:57.012Z,78.83
2022-12-15T19:14:59.649Z,78.72
2022-12-15T19:19:21.057Z,78.54
2022-12-15T19:23:23.774Z,78.34
2022-12-15T19:27:27.135Z,77.99
2022-12-15T19:31:29.764Z,77.73
2022-12-15T19:35:34.102Z,78.12
2022-12-15T19:39:38.204Z,78.40
2022-12-15T19:43:40.859Z,78.68
2022-12-15T19:47:43.859Z,79.47
2022-12-15T19:51:47.962Z,79.52
2022-12-15T19:55:52.297Z,78.81
2022-12-15T19:59:55.004Z,77.91
2022-12-15T20:03:58.034Z,77.92
2022-12-15T20:08:01.943Z,77.80
2022-12-15T20:12:04.823Z,78.29
2022-12-15T20:16:08.998Z,79.14
2022-12-15T20:20:15.818Z,79.14
2022-12-15T20:24:20.722Z,78.53
2022-12-15T20:28:25.539Z,78.46
2022-12-15T20:32:31.675Z,78.31
2022-12-15T20:36:38.872Z,77.64
2022-12-15T20:40:42.968Z,76.97
2022-12-15T20:44:45.601Z,77.02
2022-12-15T20:48:49.346Z,76.92
2022-12-15T20:52:52.141Z,76.62
2022-12-15T20:56:56.178Z,77.04
2022-12-15T21:00:59.071Z,77.65
2022-12-15T21:05:03.420Z,77.94
2022-12-15T21:09:11.762Z,77.70
2022-12-15T21:13:20.475Z,77.64
2022-12-15T21:17:26.432Z,77.73
2022-12-15T21:21:32.138Z,77.76
2022-12-15T21:25:34.806Z,77.59
2022-12-15T21:29:38.858Z,77.31
2022-12-15T21:33:41.794Z,77.67
2022-12-15T21:37:45.542Z,77.86
2022-12-15T21:41:48.161Z,78.07
2022-12-15T21:45:52.102Z,78.17
2022-12-15T21:49:55.142Z,78.03
2022-12-15T21:53:57.955Z,77.77
2022-12-15T21:58:00.626Z,77.94
